Time;durP1;ratioP1;P1;durP2;ratioP2;P2;SDS_P1;SDS_P2;PMS_P1;PMS_P2;Temp;Humidity;BMP_temperature;BMP_pressure;BME280_temperature;BME280_humidity;BME280_pressure;Samples;Min_cycle;Max_cycle;Signal;HPM_P1;HPM_P2
2021/11/27 00:00:29;;;;;;;46.58;30.65;;;3.00;99.80;;;;;;5050517;28;20228;-83
2021/11/27 00:02:57;;;;;;;42.28;29.63;;;3.00;99.80;;;;;;5055599;28;20411;-83
2021/11/27 00:05:29;;;;;;;42.40;30.23;;;3.00;99.80;;;;;;5053956;28;20231;-83
2021/11/27 00:07:58;;;;;;;44.40;29.85;;;3.00;99.80;;;;;;5062031;28;20298;-82
2021/11/27 00:10:28;;;;;;;50.45;31.88;;;3.00;99.80;;;;;;5054088;28;20228;-83
2021/11/27 00:12:57;;;;;;;42.47;29.90;;;2.90;99.80;;;;;;5055169;28;20239;-83
2021/11/27 00:15:27;;;;;;;44.58;29.55;;;2.90;99.80;;;;;;5045580;28;20256;-83
2021/11/27 00:17:56;;;;;;;50.20;30.17;;;2.90;99.80;;;;;;5042282;28;20239;-84
2021/11/27 00:20:28;;;;;;;43.95;29.55;;;2.80;99.80;;;;;;5048811;28;20224;-83
2021/11/27 00:22:56;;;;;;;39.08;29.13;;;2.80;99.80;;;;;;5058257;28;20238;-84
2021/11/27 00:25:24;;;;;;;40.30;29.42;;;2.90;99.80;;;;;;5048135;28;20231;-83
2021/11/27 00:27:53;;;;;;;40.65;31.10;;;2.80;99.80;;;;;;5046319;28;20298;-84
2021/11/27 00:30:25;;;;;;;43.50;29.42;;;2.80;99.80;;;;;;5054066;28;20247;-84
2021/11/27 00:32:53;;;;;;;39.47;28.77;;;2.80;99.80;;;;;;5051197;28;20234;-84
2021/11/27 00:35:21;;;;;;;42.17;28.80;;;2.80;99.80;;;;;;5050970;28;20837;-84
2021/11/27 00:37:54;;;;;;;49.08;30.20;;;2.80;99.80;;;;;;5051119;28;20263;-84
2021/11/27 00:40:22;;;;;;;44.92;29.55;;;2.80;99.80;;;;;;5055277;28;20231;-84
2021/11/27 00:42:51;;;;;;;42.00;29.65;;;2.80;99.80;;;;;;5054121;28;20303;-84
2021/11/27 00:45:20;;;;;;;40.53;28.02;;;2.80;99.80;;;;;;5046613;28;20255;-84
2021/11/27 00:47:50;;;;;;;48.88;32.15;;;2.80;99.80;;;;;;5058677;28;20302;-83
2021/11/27 00:50:23;;;;;;;42.53;28.83;;;2.80;99.80;;;;;;5044890;28;20224;-83
2021/11/27 00:52:52;;;;;;;44.25;29.52;;;2.80;99.80;;;;;;5056116;28;20287;-83
2021/11/27 00:55:21;;;;;;;37.55;28.30;;;2.80;99.80;;;;;;5054873;28;20396;-84
2021/11/27 00:57:50;;;;;;;41.78;27.63;;;2.80;99.80;;;;;;5040609;28;20902;-83
2021/11/27 01:00:20;;;;;;;47.28;32.22;;;2.80;99.80;;;;;;5053831;28;20233;-83
2021/11/27 01:02:49;;;;;;;41.42;29.27;;;2.80;99.80;;;;;;5059478;28;20710;-84
2021/11/27 01:05:18;;;;;;;35.97;27.67;;;2.80;99.80;;;;;;5049015;28;20240;-84
2021/11/27 01:07:47;;;;;;;42.78;29.88;;;2.80;99.80;;;;;;5055081;28;20230;-84
2021/11/27 01:10:19;;;;;;;41.65;29.52;;;2.80;99.80;;;;;;5052953;28;20239;-83
2021/11/27 01:12:48;;;;;;;37.63;28.08;;;2.80;99.80;;;;;;5045224;28;20282;-83
2021/11/27 01:15:19;;;;;;;44.25;29.45;;;2.80;99.80;;;;;;5047333;28;20231;-83
2021/11/27 01:17:48;;;;;;;37.85;26.42;;;2.90;99.80;;;;;;5049242;28;20733;-83
2021/11/27 01:20:20;;;;;;;43.78;31.73;;;2.90;99.80;;;;;;5052374;28;20220;-83
2021/11/27 01:22:48;;;;;;;39.47;28.65;;;2.90;99.80;;;;;;5053280;28;20236;-84
2021/11/27 01:25:19;;;;;;;41.13;29.90;;;3.00;99.80;;;;;;5054964;28;20227;-84
2021/11/27 01:27:47;;;;;;;37.65;28.13;;;3.00;99.80;;;;;;5047713;28;20231;-84
2021/11/27 01:30:17;;;;;;;39.20;28.60;;;3.00;99.80;;;;;;5039899;28;20224;-84
2021/11/27 01:32:45;;;;;;;41.13;29.50;;;3.00;99.80;;;;;;5048755;28;20247;-84
2021/11/27 01:35:14;;;;;;;39.22;28.90;;;3.00;99.80;;;;;;5049119;28;20251;-84
2021/11/27 01:37:42;;;;;;;37.75;27.83;;;3.00;99.80;;;;;;5049555;28;20296;-84
2021/11/27 01:40:14;;;;;;;42.35;29.73;;;3.10;99.80;;;;;;5049916;28;20228;-83
2021/11/27 01:42:44;;;;;;;40.50;30.02;;;3.10;99.80;;;;;;5044799;28;20240;-83
2021/11/27 01:45:14;;;;;;;40.17;28.63;;;3.10;99.80;;;;;;5049649;28;20225;-84
2021/11/27 01:47:47;;;;;;;37.45;27.48;;;3.10;99.80;;;;;;5054132;28;20232;-84
2021/11/27 01:50:15;;;;;;;37.03;28.20;;;3.10;99.80;;;;;;5053695;28;20223;-84
2021/11/27 01:52:43;;;;;;;36.97;27.70;;;3.10;99.80;;;;;;5055199;28;20849;-84
2021/11/27 01:55:11;;;;;;;38.78;28.17;;;3.10;99.80;;;;;;5055052;28;20231;-84
2021/11/27 01:57:41;;;;;;;49.45;35.40;;;3.10;99.80;;;;;;5054047;28;20254;-84
2021/11/27 02:00:13;;;;;;;41.00;29.20;;;3.10;99.80;;;;;;5047092;28;20637;-84
2021/11/27 02:02:41;;;;;;;38.45;28.90;;;3.10;99.80;;;;;;5059028;28;20245;-84
2021/11/27 02:05:10;;;;;;;40.20;28.48;;;3.10;99.80;;;;;;5039333;28;20645;-84
2021/11/27 02:07:40;;;;;;;41.95;29.30;;;3.10;99.80;;;;;;5053366;28;20225;-86
2021/11/27 02:10:10;;;;;;;40.47;28.67;;;3.10;99.80;;;;;;5034065;28;20232;-85
2021/11/27 02:12:39;;;;;;;41.53;29.15;;;3.10;99.80;;;;;;5047989;28;20293;-86
2021/11/27 02:15:08;;;;;;;34.38;25.67;;;3.10;99.80;;;;;;5055282;28;20232;-85
2021/11/27 02:17:38;;;;;;;39.50;29.17;;;3.10;99.80;;;;;;5046698;28;20231;-86
2021/11/27 02:20:08;;;;;;;39.95;28.70;;;3.20;99.80;;;;;;5058949;28;20240;-85
2021/11/27 02:22:38;;;;;;;37.58;27.00;;;3.20;99.80;;;;;;5067915;28;20944;-85
2021/11/27 02:25:10;;;;;;;41.35;29.17;;;3.20;99.80;;;;;;5064556;28;20233;-86
2021/11/27 02:27:39;;;;;;;37.17;28.00;;;3.30;99.80;;;;;;5067156;28;20721;-86
2021/11/27 02:30:10;;;;;;;40.80;30.33;;;3.30;99.80;;;;;;5060665;28;20236;-85
2021/11/27 02:32:38;;;;;;;36.85;28.35;;;3.30;99.80;;;;;;5061189;28;20228;-85
2021/11/27 02:35:07;;;;;;;39.20;28.23;;;3.30;99.80;;;;;;5050347;28;20231;-86
2021/11/27 02:37:37;;;;;;;41.03;29.48;;;3.30;99.80;;;;;;5063892;28;20231;-85
2021/11/27 02:40:06;;;;;;;41.00;29.95;;;3.30;99.80;;;;;;5062108;28;20324;-85
2021/11/27 02:42:34;;;;;;;38.78;28.15;;;3.30;99.80;;;;;;5060605;28;20245;-85
2021/11/27 02:45:03;;;;;;;40.83;28.40;;;3.40;99.80;;;;;;5051926;28;20658;-86
2021/11/27 02:47:31;;;;;;;39.00;28.60;;;3.40;99.80;;;;;;5059760;28;20231;-85
2021/11/27 02:50:01;;;;;;;37.88;27.63;;;3.40;99.80;;;;;;5064750;28;20713;-85
2021/11/27 02:52:30;;;;;;;42.63;28.45;;;3.40;99.80;;;;;;5063183;28;20249;-86
2021/11/27 02:54:59;;;;;;;39.63;27.88;;;3.40;99.80;;;;;;5067679;28;20299;-86
2021/11/27 02:57:29;;;;;;;40.85;28.80;;;3.50;99.80;;;;;;5054322;28;20725;-86
2021/11/27 02:59:58;;;;;;;36.47;27.55;;;3.50;99.80;;;;;;5053555;28;20240;-86
2021/11/27 03:02:27;;;;;;;35.85;27.23;;;3.50;99.80;;;;;;5061076;28;20715;-85
2021/11/27 03:04:55;;;;;;;39.33;28.15;;;3.50;99.80;;;;;;5064597;28;20227;-85
2021/11/27 03:07:23;;;;;;;39.10;28.85;;;3.50;99.80;;;;;;5067432;28;20386;-85
2021/11/27 03:09:52;;;;;;;40.63;28.17;;;3.50;99.80;;;;;;5050226;28;20312;-85
2021/11/27 03:12:21;;;;;;;39.88;28.77;;;3.50;99.80;;;;;;5051291;28;20239;-86
2021/11/27 03:14:49;;;;;;;34.83;26.48;;;3.50;99.80;;;;;;5044783;28;20231;-85
2021/11/27 03:17:18;;;;;;;36.95;28.25;;;3.50;99.80;;;;;;5062019;28;20223;-85
2021/11/27 03:19:46;;;;;;;36.58;26.77;;;3.50;99.80;;;;;;5055812;28;20318;-85
2021/11/27 03:22:19;;;;;;;34.72;25.63;;;3.50;99.80;;;;;;5062110;28;20229;-86
2021/11/27 03:24:47;;;;;;;40.20;27.73;;;3.60;99.80;;;;;;5065657;28;20585;-85
2021/11/27 03:27:16;;;;;;;38.58;27.50;;;3.60;99.80;;;;;;5059866;28;20571;-85
2021/11/27 03:29:46;;;;;;;41.40;30.55;;;3.60;99.80;;;;;;5048266;28;20235;-85
2021/11/27 03:32:16;;;;;;;36.17;27.67;;;3.60;99.80;;;;;;5058999;28;20220;-85
2021/11/27 03:34:45;;;;;;;41.45;27.80;;;3.60;99.80;;;;;;5059692;28;20235;-85
2021/11/27 03:37:14;;;;;;;37.65;29.20;;;3.60;99.80;;;;;;5061031;28;20311;-85
2021/11/27 03:39:42;;;;;;;35.88;27.48;;;3.60;99.80;;;;;;5058634;28;20236;-85
2021/11/27 03:42:12;;;;;;;38.97;28.98;;;3.60;99.80;;;;;;5060546;28;20231;-85
2021/11/27 03:44:41;;;;;;;39.33;28.38;;;3.60;99.80;;;;;;5054706;28;20247;-85
2021/11/27 03:47:11;;;;;;;36.13;27.48;;;3.60;99.80;;;;;;5040619;28;20635;-85
2021/11/27 03:49:40;;;;;;;33.72;26.77;;;3.50;99.80;;;;;;5058473;28;20743;-85
2021/11/27 03:52:08;;;;;;;34.95;27.70;;;3.50;99.80;;;;;;5066240;28;20223;-85
2021/11/27 03:54:36;;;;;;;35.15;27.30;;;3.60;99.80;;;;;;5050836;28;20316;-85
2021/11/27 03:57:05;;;;;;;34.97;26.52;;;3.50;99.80;;;;;;5055880;28;20263;-85
2021/11/27 03:59:34;;;;;;;39.65;28.63;;;3.60;99.80;;;;;;5059960;28;20234;-86
2021/11/27 04:02:02;;;;;;;35.60;26.63;;;3.60;99.80;;;;;;5066965;28;20327;-85
2021/11/27 04:04:32;;;;;;;37.13;27.85;;;3.60;99.80;;;;;;5062884;28;20632;-85
2021/11/27 04:07:00;;;;;;;33.35;26.90;;;3.60;99.80;;;;;;5056779;28;20227;-85
2021/11/27 04:09:29;;;;;;;37.75;27.63;;;3.60;99.80;;;;;;5064964;28;20223;-85
2021/11/27 04:11:57;;;;;;;34.70;26.63;;;3.60;99.80;;;;;;5067420;28;20591;-84
2021/11/27 04:14:25;;;;;;;35.33;27.15;;;3.50;99.80;;;;;;5034955;28;20228;-85
2021/11/27 04:16:53;;;;;;;33.00;27.00;;;3.50;99.80;;;;;;5040648;28;20707;-85
2021/11/27 04:19:23;;;;;;;31.60;25.55;;;3.50;99.80;;;;;;5040692;28;20708;-85
2021/11/27 04:21:52;;;;;;;34.40;26.25;;;3.50;99.80;;;;;;5044632;28;20658;-86
2021/11/27 04:24:21;;;;;;;37.28;28.80;;;3.50;99.80;;;;;;5034851;28;20232;-86
2021/11/27 04:26:49;;;;;;;34.65;27.00;;;3.50;99.80;;;;;;5042977;28;20933;-85
2021/11/27 04:29:17;;;;;;;33.63;26.40;;;3.50;99.80;;;;;;5045682;28;20300;-85
2021/11/27 04:31:47;;;;;;;35.40;27.00;;;3.50;99.80;;;;;;5051565;28;20229;-85
2021/11/27 04:34:15;;;;;;;37.53;26.38;;;3.50;99.80;;;;;;5034276;28;20224;-85
2021/11/27 04:36:43;;;;;;;33.55;26.25;;;3.50;99.80;;;;;;5046914;28;20236;-85
2021/11/27 04:39:12;;;;;;;34.45;26.52;;;3.50;99.80;;;;;;5047326;28;20235;-85
2021/11/27 04:41:40;;;;;;;34.50;26.52;;;3.50;99.80;;;;;;5044669;28;20237;-85
2021/11/27 04:44:09;;;;;;;33.88;26.42;;;3.50;99.80;;;;;;5035020;28;20325;-85
2021/11/27 04:46:37;;;;;;;33.35;25.98;;;3.50;99.80;;;;;;5063257;28;20230;-84
2021/11/27 04:49:05;;;;;;;34.97;27.52;;;3.60;99.80;;;;;;5055248;28;20227;-85
2021/11/27 04:51:33;;;;;;;39.88;29.63;;;3.60;99.80;;;;;;5070830;28;20227;-85
2021/11/27 04:54:01;;;;;;;35.95;27.27;;;3.60;99.80;;;;;;5061696;28;20317;-85
2021/11/27 04:56:30;;;;;;;33.97;26.73;;;3.60;99.80;;;;;;5037421;28;20865;-86
2021/11/27 04:58:58;;;;;;;37.55;27.20;;;3.60;99.80;;;;;;5055022;28;20237;-87
2021/11/27 05:01:26;;;;;;;39.42;27.58;;;3.60;99.80;;;;;;5061392;28;20230;-87
2021/11/27 05:03:55;;;;;;;34.30;26.90;;;3.60;99.80;;;;;;5033650;28;20225;-86
2021/11/27 05:06:23;;;;;;;37.88;27.85;;;3.60;99.80;;;;;;5070904;28;20230;-86
2021/11/27 05:08:52;;;;;;;37.50;27.85;;;3.60;99.80;;;;;;5055358;28;20739;-86
2021/11/27 05:11:20;;;;;;;35.00;26.67;;;3.60;99.80;;;;;;5058800;28;20230;-86
2021/11/27 05:13:49;;;;;;;36.05;27.58;;;3.60;99.80;;;;;;5062830;28;20223;-86
2021/11/27 05:16:17;;;;;;;41.05;30.00;;;3.60;99.80;;;;;;5043608;28;20321;-87
2021/11/27 05:18:45;;;;;;;36.05;27.60;;;3.60;99.80;;;;;;5063953;28;20231;-87
2021/11/27 05:21:13;;;;;;;35.97;27.80;;;3.60;99.80;;;;;;5061864;28;20812;-86
2021/11/27 05:23:41;;;;;;;35.67;27.70;;;3.60;99.80;;;;;;5060428;28;20232;-86
2021/11/27 05:26:09;;;;;;;40.47;30.05;;;3.60;99.80;;;;;;5050850;28;20798;-86
2021/11/27 05:28:37;;;;;;;39.35;28.30;;;3.70;99.80;;;;;;5060144;28;20224;-86
2021/11/27 05:31:08;;;;;;;39.63;29.25;;;3.70;99.80;;;;;;5068205;28;20230;-86
2021/11/27 05:33:47;;;;;;;38.80;28.80;;;3.70;99.80;;;;;;5066713;28;20681;-86
2021/11/27 05:36:18;;;;;;;35.95;28.40;;;3.70;99.80;;;;;;5068938;28;20216;-84
2021/11/27 05:38:48;;;;;;;37.28;27.38;;;3.70;99.80;;;;;;5070822;28;20238;-86
2021/11/27 05:41:17;;;;;;;33.88;26.48;;;3.70;99.80;;;;;;5074472;28;20694;-85
2021/11/27 05:43:45;;;;;;;35.40;27.95;;;3.70;99.80;;;;;;5070760;28;20270;-85
2021/11/27 05:46:14;;;;;;;34.80;27.23;;;3.70;99.80;;;;;;5070600;28;20251;-86
2021/11/27 05:48:42;;;;;;;35.42;27.52;;;3.70;99.80;;;;;;5071398;28;20227;-85
2021/11/27 05:51:11;;;;;;;37.03;28.90;;;3.70;99.80;;;;;;5069464;28;20223;-85
2021/11/27 05:53:39;;;;;;;38.10;28.77;;;3.70;99.80;;;;;;5071294;28;20307;-85
2021/11/27 05:56:09;;;;;;;36.35;27.90;;;3.70;99.80;;;;;;5057427;28;20721;-85
2021/11/27 05:58:37;;;;;;;36.10;27.42;;;3.70;99.80;;;;;;5050078;28;20231;-85
2021/11/27 06:01:06;;;;;;;35.13;27.08;;;3.70;99.80;;;;;;5065134;28;20238;-86
2021/11/27 06:03:37;;;;;;;39.33;26.65;;;3.70;99.80;;;;;;5061898;28;20289;-85
2021/11/27 06:06:05;;;;;;;40.75;27.05;;;3.70;99.80;;;;;;5065705;28;20234;-85
2021/11/27 06:08:33;;;;;;;36.85;27.65;;;3.70;99.80;;;;;;5059228;28;20220;-86
2021/11/27 06:11:01;;;;;;;36.05;27.20;;;3.70;99.80;;;;;;5067643;28;20228;-85
2021/11/27 06:13:30;;;;;;;39.20;27.83;;;3.70;99.80;;;;;;5068930;28;20242;-85
2021/11/27 06:15:58;;;;;;;37.95;26.55;;;3.70;99.80;;;;;;5062439;28;21909;-85
2021/11/27 06:18:26;;;;;;;37.22;27.58;;;3.70;99.80;;;;;;5061586;28;20224;-85
2021/11/27 06:20:55;;;;;;;36.92;28.45;;;3.70;99.80;;;;;;5068205;28;20713;-85
2021/11/27 06:23:23;;;;;;;46.42;35.75;;;3.70;99.80;;;;;;5061139;28;20234;-85
2021/11/27 06:25:51;;;;;;;33.92;26.77;;;3.80;99.80;;;;;;5062114;28;20700;-85
2021/11/27 06:28:19;;;;;;;37.85;28.90;;;3.70;99.80;;;;;;5066562;28;20228;-86
2021/11/27 06:30:47;;;;;;;39.55;27.10;;;3.70;99.80;;;;;;5062545;28;20238;-85
2021/11/27 06:33:15;;;;;;;39.58;26.70;;;3.80;99.80;;;;;;5066625;28;20283;-85
2021/11/27 06:35:44;;;;;;;37.63;27.90;;;3.80;99.80;;;;;;5061553;28;20239;-85
2021/11/27 06:38:13;;;;;;;34.88;26.05;;;3.80;99.80;;;;;;5056058;28;20212;-84
2021/11/27 06:40:41;;;;;;;34.38;25.90;;;3.70;99.80;;;;;;5055442;28;20711;-84
2021/11/27 06:43:09;;;;;;;35.88;27.42;;;3.70;99.80;;;;;;5054067;28;20255;-85
2021/11/27 06:45:37;;;;;;;36.03;27.05;;;3.80;99.80;;;;;;5067546;28;20223;-85
2021/11/27 06:48:05;;;;;;;35.55;26.88;;;3.80;99.80;;;;;;5065486;28;20689;-85
2021/11/27 06:50:33;;;;;;;35.25;26.60;;;3.80;99.80;;;;;;5067790;28;20725;-84
2021/11/27 06:53:01;;;;;;;34.13;26.30;;;3.90;99.80;;;;;;5067537;28;20219;-85
2021/11/27 06:55:31;;;;;;;33.85;26.02;;;3.90;99.80;;;;;;5066714;28;20221;-84
2021/11/27 06:57:59;;;;;;;33.88;26.23;;;3.90;99.80;;;;;;5061787;28;20231;-84
2021/11/27 07:00:27;;;;;;;35.60;26.77;;;3.80;99.80;;;;;;5063491;28;20227;-84
2021/11/27 07:02:55;;;;;;;34.38;26.30;;;3.80;99.80;;;;;;5064029;28;20327;-84
2021/11/27 07:05:23;;;;;;;36.85;28.77;;;3.80;99.80;;;;;;5064097;28;20577;-86
2021/11/27 07:07:51;;;;;;;34.65;26.90;;;3.80;99.80;;;;;;5061041;28;20252;-85
2021/11/27 07:10:19;;;;;;;36.35;27.85;;;3.80;99.80;;;;;;5063817;28;20706;-86
2021/11/27 07:12:49;;;;;;;34.15;26.80;;;3.80;99.80;;;;;;5050846;28;20235;-85
2021/11/27 07:15:17;;;;;;;35.90;27.35;;;3.70;99.80;;;;;;5066543;28;20596;-85
2021/11/27 07:17:45;;;;;;;35.83;27.52;;;3.80;99.80;;;;;;5070391;28;20232;-84
2021/11/27 07:20:13;;;;;;;35.78;27.50;;;3.80;99.80;;;;;;5071063;28;20228;-84
2021/11/27 07:22:41;;;;;;;32.78;25.40;;;3.80;99.80;;;;;;5070354;28;20262;-84
2021/11/27 07:25:10;;;;;;;33.28;26.10;;;3.80;99.80;;;;;;5069795;28;20228;-84
2021/11/27 07:27:38;;;;;;;34.63;27.10;;;3.80;99.80;;;;;;5069094;28;20224;-85
2021/11/27 07:30:09;;;;;;;34.53;26.30;;;3.90;99.80;;;;;;5069448;28;20219;-85
2021/11/27 07:32:37;;;;;;;36.10;27.77;;;3.90;99.80;;;;;;5069531;28;20865;-85
2021/11/27 07:35:06;;;;;;;35.03;27.13;;;3.90;99.80;;;;;;5065870;28;20255;-84
2021/11/27 07:37:34;;;;;;;35.03;27.40;;;3.90;99.80;;;;;;5051995;28;20225;-84
2021/11/27 07:40:02;;;;;;;34.50;26.90;;;4.00;99.80;;;;;;5064912;28;20231;-84
2021/11/27 07:42:30;;;;;;;37.88;28.13;;;4.00;99.80;;;;;;5065441;28;20247;-84
2021/11/27 07:44:58;;;;;;;40.15;29.88;;;4.00;99.80;;;;;;5059450;28;20225;-84
2021/11/27 07:47:27;;;;;;;34.33;26.63;;;4.10;99.80;;;;;;5064836;28;20227;-84
2021/11/27 07:49:59;;;;;;;34.95;27.10;;;4.10;99.80;;;;;;5061095;28;21049;-84
2021/11/27 07:52:27;;;;;;;34.95;26.75;;;4.10;99.80;;;;;;5070200;28;20713;-84
2021/11/27 07:54:57;;;;;;;34.38;27.30;;;4.10;99.80;;;;;;5070061;28;20244;-84
2021/11/27 07:57:25;;;;;;;39.47;28.42;;;4.10;99.80;;;;;;5067887;28;20227;-84
2021/11/27 07:59:52;;;;;;;36.88;28.38;;;4.10;99.80;;;;;;5064776;28;20232;-82
2021/11/27 08:02:21;;;;;;;36.10;28.40;;;4.20;99.80;;;;;;5067005;28;20228;-83
2021/11/27 08:04:50;;;;;;;39.83;29.77;;;4.20;99.80;;;;;;5060419;28;20233;-82
2021/11/27 08:07:18;;;;;;;36.13;26.70;;;4.20;99.80;;;;;;5068266;28;20227;-82
2021/11/27 08:09:48;;;;;;;38.72;29.35;;;4.20;99.80;;;;;;5058602;28;20224;-82
2021/11/27 08:12:17;;;;;;;36.50;28.73;;;4.30;99.80;;;;;;5049581;28;20657;-83
2021/11/27 08:14:44;;;;;;;40.35;30.48;;;4.30;99.80;;;;;;5058195;28;20232;-81
2021/11/27 08:17:12;;;;;;;60.75;42.95;;;4.40;99.80;;;;;;5045128;28;20227;-83
2021/11/27 08:19:40;;;;;;;39.83;30.23;;;4.40;99.80;;;;;;5050987;28;20831;-84
2021/11/27 08:22:10;;;;;;;40.67;30.00;;;4.50;99.80;;;;;;5058816;28;20685;-83
2021/11/27 08:24:38;;;;;;;41.08;30.30;;;4.60;99.80;;;;;;5059642;28;20311;-85
2021/11/27 08:27:06;;;;;;;36.53;28.77;;;4.60;99.80;;;;;;5053724;28;20224;-83
2021/11/27 08:29:34;;;;;;;39.53;28.95;;;4.80;99.80;;;;;;5054678;28;20223;-85
2021/11/27 08:32:02;;;;;;;37.47;28.65;;;4.90;99.80;;;;;;5053047;28;20232;-82
2021/11/27 08:34:30;;;;;;;37.03;29.58;;;4.90;99.80;;;;;;5066227;28;20721;-83
2021/11/27 08:36:58;;;;;;;36.95;29.10;;;4.90;99.80;;;;;;5061813;28;20242;-84
2021/11/27 08:39:27;;;;;;;40.47;30.13;;;4.90;99.80;;;;;;5061522;28;20227;-82
2021/11/27 08:41:55;;;;;;;37.95;29.05;;;4.90;99.80;;;;;;5062854;28;20224;-83
2021/11/27 08:44:23;;;;;;;42.42;32.42;;;4.90;99.80;;;;;;5058504;28;20969;-84
2021/11/27 08:46:51;;;;;;;37.70;30.25;;;4.90;99.80;;;;;;5060104;28;20228;-84
2021/11/27 08:49:19;;;;;;;39.55;30.55;;;5.00;99.80;;;;;;5054167;28;20224;-86
2021/11/27 08:51:47;;;;;;;36.22;28.35;;;5.00;99.80;;;;;;5059271;28;20283;-86
2021/11/27 08:54:16;;;;;;;35.55;28.85;;;5.00;99.80;;;;;;5059518;28;20744;-83
2021/11/27 08:56:46;;;;;;;35.00;28.58;;;5.00;99.80;;;;;;5060106;28;20229;-82
2021/11/27 08:59:13;;;;;;;37.67;28.63;;;5.00;99.80;;;;;;5034666;28;20225;-83
2021/11/27 09:01:42;;;;;;;37.45;27.75;;;4.90;99.80;;;;;;5059583;28;20234;-82
2021/11/27 09:04:10;;;;;;;40.90;29.17;;;4.90;99.80;;;;;;5046855;28;20220;-82
2021/11/27 09:06:38;;;;;;;35.20;26.63;;;4.80;99.80;;;;;;5034284;28;20229;-82
2021/11/27 09:09:06;;;;;;;36.15;28.80;;;4.80;99.80;;;;;;5047958;28;20244;-82
2021/11/27 09:11:36;;;;;;;34.25;27.95;;;4.80;99.80;;;;;;5041041;28;20231;-82
2021/11/27 09:14:07;;;;;;;35.67;26.70;;;4.70;99.80;;;;;;5041116;28;20712;-82
2021/11/27 09:16:36;;;;;;;30.38;24.83;;;4.80;99.80;;;;;;5048533;28;20228;-81
2021/11/27 09:19:06;;;;;;;35.45;26.48;;;4.80;99.80;;;;;;5055028;28;20303;-83
2021/11/27 09:21:36;;;;;;;35.40;26.90;;;4.70;99.80;;;;;;5051943;28;20233;-81
2021/11/27 09:24:05;;;;;;;35.05;27.42;;;4.80;99.80;;;;;;5051143;28;20968;-82
2021/11/27 09:26:34;;;;;;;38.42;29.75;;;4.70;99.80;;;;;;5050687;28;20235;-82
2021/11/27 09:29:05;;;;;;;33.03;26.58;;;4.70;99.80;;;;;;5049168;28;20244;-82
2021/11/27 09:31:38;;;;;;;36.28;27.75;;;4.70;99.80;;;;;;5044189;28;20678;-82
2021/11/27 09:34:07;;;;;;;34.05;27.25;;;4.70;99.80;;;;;;5029532;28;20240;-83
2021/11/27 09:36:36;;;;;;;34.85;27.05;;;4.70;99.80;;;;;;5050406;28;20229;-82
2021/11/27 09:39:05;;;;;;;36.40;28.48;;;4.60;99.80;;;;;;5046081;28;20578;-82
2021/11/27 09:41:36;;;;;;;36.25;29.05;;;4.60;99.80;;;;;;5057052;28;20259;-81
2021/11/27 09:44:08;;;;;;;37.30;29.48;;;4.60;99.80;;;;;;5032625;28;20233;-82
2021/11/27 09:46:38;;;;;;;34.42;28.00;;;4.60;99.80;;;;;;5039301;28;20236;-83
2021/11/27 09:49:09;;;;;;;40.33;30.10;;;4.60;99.80;;;;;;5062359;28;20223;-82
2021/11/27 09:51:38;;;;;;;37.00;29.88;;;4.60;99.80;;;;;;5064877;28;20238;-84
2021/11/27 09:54:09;;;;;;;36.75;29.48;;;4.60;99.80;;;;;;5055607;28;20752;-83
2021/11/27 09:56:37;;;;;;;37.33;28.75;;;4.60;99.80;;;;;;5056274;28;20228;-83
2021/11/27 09:59:07;;;;;;;37.30;29.70;;;4.60;99.80;;;;;;5056095;28;20230;-84
2021/11/27 10:01:37;;;;;;;39.13;29.55;;;4.60;99.80;;;;;;5049914;28;20234;-83
2021/11/27 10:04:08;;;;;;;35.65;28.77;;;4.60;99.80;;;;;;5068304;28;20234;-85
2021/11/27 10:06:38;;;;;;;39.17;27.92;;;4.60;99.80;;;;;;5050025;28;20300;-83
2021/11/27 10:09:08;;;;;;;39.35;30.00;;;4.60;99.80;;;;;;5060401;28;20232;-83
2021/11/27 10:11:37;;;;;;;39.28;30.85;;;4.60;99.80;;;;;;5053022;28;21194;-82
2021/11/27 10:14:07;;;;;;;40.03;31.15;;;4.60;99.80;;;;;;5047736;28;20605;-84
2021/11/27 10:17:03;;;;;;;44.28;31.38;;;4.70;99.80;;;;;;5046972;28;20223;-84
2021/11/27 10:19:46;;;;;;;36.80;30.60;;;4.80;99.80;;;;;;5047506;28;20224;-83
2021/11/27 10:22:17;;;;;;;40.72;33.35;;;4.90;99.80;;;;;;5047370;28;20224;-82
2021/11/27 10:24:47;;;;;;;39.08;32.70;;;5.00;99.80;;;;;;5049717;28;20228;-83
2021/11/27 10:27:24;;;;;;;41.25;30.55;;;5.10;99.80;;;;;;5052831;28;20246;-83
2021/11/27 10:30:04;;;;;;;50.78;39.30;;;5.10;99.80;;;;;;5054066;28;20247;-83
2021/11/27 10:32:38;;;;;;;54.60;41.05;;;5.20;99.80;;;;;;5052932;28;20223;-84
2021/11/27 10:35:09;;;;;;;50.67;39.58;;;5.20;99.80;;;;;;5056936;28;20227;-85
2021/11/27 10:37:41;;;;;;;52.75;40.55;;;5.20;99.80;;;;;;5052470;28;20736;-83
2021/11/27 10:40:11;;;;;;;53.22;40.80;;;5.30;99.80;;;;;;5052459;28;20224;-84
2021/11/27 10:42:44;;;;;;;40.08;32.33;;;5.30;99.80;;;;;;5051297;28;20242;-83
2021/11/27 10:45:17;;;;;;;49.67;38.28;;;5.30;99.80;;;;;;5064248;28;20248;-83
2021/11/27 10:47:46;;;;;;;55.88;40.83;;;5.30;99.80;;;;;;5067307;28;20230;-84
2021/11/27 10:50:19;;;;;;;54.83;42.70;;;5.30;99.80;;;;;;5059281;28;20293;-83
2021/11/27 10:52:49;;;;;;;55.10;41.97;;;5.30;99.80;;;;;;5054838;28;20227;-84
2021/11/27 10:55:20;;;;;;;54.78;42.72;;;5.40;99.80;;;;;;5062751;28;20216;-82
2021/11/27 10:57:51;;;;;;;54.47;40.92;;;5.50;99.80;;;;;;5050497;28;20230;-84
2021/11/27 11:00:34;;;;;;;55.83;42.15;;;5.60;99.80;;;;;;5051583;28;20238;-83
2021/11/27 11:03:04;;;;;;;51.13;39.17;;;5.70;99.80;;;;;;5043114;28;20231;-83
2021/11/27 11:05:34;;;;;;;50.15;39.55;;;5.80;99.80;;;;;;5041183;28;20677;-85
2021/11/27 11:08:05;;;;;;;54.75;40.80;;;5.80;99.80;;;;;;5059797;28;20229;-83
2021/11/27 11:10:34;;;;;;;56.60;41.90;;;5.80;99.80;;;;;;5058817;28;20261;-84
2021/11/27 11:13:06;;;;;;;58.13;39.72;;;5.90;99.80;;;;;;5057695;28;20234;-82
2021/11/27 11:15:38;;;;;;;42.60;31.02;;;5.90;99.80;;;;;;5075485;28;20737;-82
2021/11/27 11:18:16;;;;;;;50.60;38.03;;;5.90;99.80;;;;;;5063576;28;20238;-83
2021/11/27 11:20:46;;;;;;;48.45;38.10;;;5.90;99.80;;;;;;5064161;28;20223;-82
2021/11/27 11:23:21;;;;;;;56.47;39.67;;;5.90;99.80;;;;;;5062213;28;20232;-82
2021/11/27 11:26:11;;;;;;;34.92;29.92;;;5.90;99.80;;;;;;5042671;28;20231;-82
2021/11/27 11:28:41;;;;;;;51.67;41.05;;;6.00;99.80;;;;;;5037238;28;20235;-83
2021/11/27 11:31:14;;;;;;;51.28;38.55;;;6.10;99.80;;;;;;5042856;28;20621;-83
2021/11/27 11:33:46;;;;;;;53.08;40.58;;;6.20;99.80;;;;;;5039918;28;20236;-81
2021/11/27 11:36:16;;;;;;;53.25;40.63;;;6.40;99.80;;;;;;5053060;28;20238;-82
2021/11/27 11:38:46;;;;;;;52.38;39.95;;;6.70;99.80;;;;;;5049219;28;20289;-82
2021/11/27 11:41:16;;;;;;;51.50;39.45;;;7.10;99.80;;;;;;5048750;28;20229;-82
2021/11/27 11:43:44;;;;;;;53.60;40.95;;;7.30;99.80;;;;;;5048712;28;20791;-83
2021/11/27 11:46:14;;;;;;;58.22;41.83;;;;;;;;;;5027518;28;20224;-82
2021/11/27 11:48:50;;;;;;;52.30;39.67;;;7.90;99.80;;;;;;5039616;28;20319;-82
2021/11/27 11:51:34;;;;;;;53.35;39.40;;;7.90;99.80;;;;;;5057093;28;20223;-82
2021/11/27 11:54:03;;;;;;;54.80;41.58;;;7.50;99.80;;;;;;5048957;28;20227;-82
2021/11/27 11:56:33;;;;;;;53.47;39.85;;;7.10;99.80;;;;;;5037257;28;20225;-82
2021/11/27 11:59:21;;;;;;;51.25;38.97;;;6.90;99.80;;;;;;5039657;28;20240;-82
2021/11/27 12:02:12;;;;;;;49.75;37.30;;;6.70;99.80;;;;;;5048897;28;20311;-82
2021/11/27 12:05:01;;;;;;;41.88;32.63;;;6.50;99.80;;;;;;5045189;28;20237;-82
2021/11/27 12:07:48;;;;;;;52.50;38.88;;;6.30;99.80;;;;;;5039484;28;20239;-83
2021/11/27 12:10:43;;;;;;;40.08;31.45;;;6.20;99.80;;;;;;5045002;28;20278;-82
2021/11/27 12:13:33;;;;;;;52.85;39.03;;;6.10;99.80;;;;;;5044988;28;20232;-83
2021/11/27 12:16:15;;;;;;;36.88;28.52;;;6.10;99.80;;;;;;5046158;28;20309;-82
2021/11/27 12:19:10;;;;;;;36.63;29.13;;;6.10;99.80;;;;;;5044497;28;20310;-83
2021/11/27 12:22:33;;;;;;;38.08;29.80;;;6.10;99.80;;;;;;5047444;28;20224;-81
2021/11/27 12:25:17;;;;;;;51.63;38.75;;;6.10;99.80;;;;;;5045729;28;20228;-84
2021/11/27 12:28:15;;;;;;;53.45;39.83;;;6.00;99.80;;;;;;5037225;28;20840;-81
2021/11/27 12:30:59;;;;;;;35.63;28.58;;;5.90;99.80;;;;;;5033109;28;20244;-81
2021/11/27 12:33:47;;;;;;;41.55;32.35;;;5.90;99.80;;;;;;5045186;28;20236;-81
2021/11/27 12:36:50;;;;;;;47.47;30.17;;;5.90;99.80;;;;;;5050961;28;20224;-80
2021/11/27 12:39:35;;;;;;;39.05;30.52;;;5.90;99.80;;;;;;4982940;28;20701;-80
2021/11/27 12:42:20;;;;;;;55.58;39.75;;;5.90;99.80;;;;;;5044050;28;20245;-81
2021/11/27 12:44:50;;;;;;;63.10;43.30;;;5.90;99.80;;;;;;5052861;28;20220;-81
2021/11/27 12:47:36;;;;;;;57.67;40.83;;;5.90;99.80;;;;;;5042573;28;20228;-81
2021/11/27 12:50:12;;;;;;;62.53;42.97;;;6.00;99.80;;;;;;5042298;28;20282;-81
2021/11/27 12:52:43;;;;;;;54.20;40.28;;;6.00;99.80;;;;;;5057116;28;20237;-81
2021/11/27 12:55:44;;;;;;;52.20;38.95;;;6.20;99.80;;;;;;5056584;28;20370;-81